createdAt,value
2022-10-20T00:01:01.715Z,13.30
2022-10-20T00:03:50.640Z,13.28
2022-10-20T00:06:38.505Z,13.25
2022-10-20T00:09:26.542Z,13.20
2022-10-20T00:12:15.454Z,13.17
2022-10-20T00:15:04.117Z,13.14
2022-10-20T00:17:52.365Z,13.10
2022-10-20T00:20:41.736Z,13.07
2022-10-20T00:23:29.740Z,13.03
2022-10-20T00:26:20.138Z,13.00
2022-10-20T00:29:08.115Z,12.96
2022-10-20T00:31:56.035Z,12.91
2022-10-20T00:34:44.049Z,12.89
2022-10-20T00:37:34.313Z,12.85
2022-10-20T00:40:22.077Z,12.81
2022-10-20T00:43:14.799Z,12.77
2022-10-20T00:46:02.873Z,12.72
2022-10-20T00:48:55.141Z,12.69
2022-10-20T00:51:44.568Z,12.63
2022-10-20T00:54:33.683Z,12.60
2022-10-20T00:57:22.254Z,12.55
2022-10-20T01:00:11.955Z,12.50
2022-10-20T01:03:02.429Z,12.45
2022-10-20T01:05:50.303Z,12.42
2022-10-20T01:08:39.193Z,12.36
2022-10-20T01:11:36.850Z,12.31
2022-10-20T01:14:37.690Z,12.28
2022-10-20T01:17:38.380Z,12.24
2022-10-20T01:21:04.795Z,12.22
2022-10-20T01:24:21.049Z,12.20
2022-10-20T01:27:33.358Z,12.17
2022-10-20T01:30:23.745Z,12.15
2022-10-20T01:33:21.775Z,12.13
2022-10-20T01:36:18.228Z,12.13
2022-10-20T01:39:13.286Z,12.10
2022-10-20T01:42:07.845Z,12.09
2022-10-20T01:44:59.806Z,12.08
2022-10-20T01:47:51.049Z,12.05
2022-10-20T01:50:45.149Z,12.02
2022-10-20T01:53:31.835Z,12.00
2022-10-20T01:56:35.118Z,11.97
2022-10-20T01:59:41.088Z,11.94
2022-10-20T02:02:42.553Z,11.91
2022-10-20T02:05:46.661Z,11.88
2022-10-20T02:08:42.998Z,11.85
2022-10-20T02:11:38.049Z,11.83
2022-10-20T02:14:26.756Z,11.80
2022-10-20T02:17:16.866Z,11.77
2022-10-20T02:20:08.815Z,11.71
2022-10-20T02:23:00.167Z,11.70
2022-10-20T02:25:52.706Z,11.65
2022-10-20T02:28:45.067Z,11.59
2022-10-20T02:31:33.263Z,11.52
2022-10-20T02:34:21.278Z,11.47
2022-10-20T02:37:09.746Z,11.42
2022-10-20T02:39:58.356Z,11.37
2022-10-20T02:42:46.395Z,11.30
2022-10-20T02:45:35.603Z,11.25
2022-10-20T02:48:23.929Z,11.21
2022-10-20T02:51:12.940Z,11.17
2022-10-20T02:54:01.113Z,11.11
2022-10-20T02:56:49.032Z,11.06
2022-10-20T02:59:37.448Z,11.00
2022-10-20T03:02:25.333Z,10.95
2022-10-20T03:05:13.852Z,10.90
2022-10-20T03:08:01.895Z,10.83
2022-10-20T03:10:51.123Z,10.77
2022-10-20T03:13:39.165Z,10.68
2022-10-20T03:16:27.610Z,10.61
2022-10-20T03:19:15.966Z,10.48
2022-10-20T03:22:05.035Z,10.45
2022-10-20T03:24:53.597Z,10.39
2022-10-20T03:27:41.988Z,10.33
2022-10-20T03:30:30.584Z,10.26
2022-10-20T03:33:19.309Z,10.19
2022-10-20T03:36:08.964Z,10.12
2022-10-20T03:38:57.413Z,10.07
2022-10-20T03:41:45.277Z,10.00
2022-10-20T03:44:33.455Z,9.96
2022-10-20T03:47:21.580Z,9.91
2022-10-20T03:50:10.517Z,9.87
2022-10-20T03:52:58.293Z,9.82
2022-10-20T03:55:46.798Z,9.79
2022-10-20T03:58:35.285Z,9.74
2022-10-20T04:01:28.836Z,9.67
2022-10-20T04:04:19.031Z,9.58
2022-10-20T04:07:07.392Z,9.51
2022-10-20T04:09:56.243Z,9.47
2022-10-20T04:12:44.999Z,9.42
2022-10-20T04:15:35.854Z,9.37
2022-10-20T04:18:24.063Z,9.32
2022-10-20T04:21:11.998Z,9.25
2022-10-20T04:24:00.198Z,9.20
2022-10-20T04:29:45.715Z,9.08
2022-10-20T04:32:34.038Z,9.01
2022-10-20T04:35:22.664Z,8.92
2022-10-20T04:38:10.673Z,8.85
2022-10-20T04:41:04.274Z,8.77
2022-10-20T04:43:54.248Z,8.66
2022-10-20T04:46:42.457Z,8.59
2022-10-20T04:49:30.652Z,8.55
2022-10-20T04:52:20.314Z,8.53
2022-10-20T04:55:09.987Z,8.54
2022-10-20T04:57:58.461Z,8.55
2022-10-20T05:00:46.541Z,8.56
2022-10-20T05:03:35.813Z,8.57
2022-10-20T05:06:26.324Z,8.57
2022-10-20T05:09:15.860Z,8.55
2022-10-20T05:12:04.358Z,8.52
2022-10-20T05:14:52.543Z,8.47
2022-10-20T05:17:40.519Z,8.42
2022-10-20T05:20:30.946Z,8.43
2022-10-20T05:23:21.641Z,8.45
2022-10-20T05:26:14.276Z,8.50
2022-10-20T05:29:05.592Z,8.54
2022-10-20T05:31:53.496Z,8.61
2022-10-20T05:34:41.510Z,8.67
2022-10-20T05:37:29.569Z,8.73
2022-10-20T05:40:21.455Z,8.78
2022-10-20T05:43:09.545Z,8.83
2022-10-20T05:45:57.687Z,8.88
2022-10-20T05:48:45.730Z,8.94
2022-10-20T05:51:36.470Z,8.98
2022-10-20T05:54:24.844Z,9.03
2022-10-20T05:57:12.846Z,9.07
2022-10-20T06:00:01.277Z,9.14
2022-10-20T06:02:59.547Z,9.21
2022-10-20T06:05:47.676Z,9.30
2022-10-20T06:08:38.907Z,9.37
2022-10-20T06:11:29.788Z,9.47
2022-10-20T06:14:18.818Z,9.57
2022-10-20T06:17:07.921Z,9.66
2022-10-20T06:19:55.614Z,9.77
2022-10-20T06:22:44.204Z,9.90
2022-10-20T06:25:33.644Z,10.03
2022-10-20T06:28:23.797Z,10.16
2022-10-20T06:31:14.402Z,10.28
2022-10-20T06:34:05.580Z,10.39
2022-10-20T06:36:55.180Z,10.51
2022-10-20T06:39:45.237Z,10.60
2022-10-20T06:42:35.243Z,10.67
2022-10-20T06:45:23.883Z,10.77
2022-10-20T06:48:14.700Z,10.83
2022-10-20T06:51:31.178Z,10.91
2022-10-20T06:54:22.439Z,10.96
2022-10-20T06:57:10.846Z,11.05
2022-10-20T06:59:59.646Z,11.10
2022-10-20T07:02:50.786Z,11.17
2022-10-20T07:05:47.988Z,11.22
2022-10-20T07:08:42.627Z,11.28
2022-10-20T07:11:32.062Z,11.35
2022-10-20T07:14:22.725Z,11.38
2022-10-20T07:17:10.835Z,11.41
2022-10-20T07:19:59.277Z,11.48
2022-10-20T07:22:49.122Z,11.54
2022-10-20T07:25:38.150Z,11.59
2022-10-20T07:28:29.780Z,11.64
2022-10-20T07:31:21.077Z,11.69
2022-10-20T07:34:24.435Z,11.75
2022-10-20T07:37:15.026Z,11.80
2022-10-20T07:51:06.673Z,12.12
2022-10-20T07:54:17.649Z,12.24
2022-10-20T07:57:06.574Z,12.37
2022-10-20T07:59:55.081Z,12.44
2022-10-20T08:02:46.806Z,12.54
2022-10-20T08:05:41.968Z,12.59
2022-10-20T08:08:30.951Z,12.69
2022-10-20T08:11:20.393Z,12.76
2022-10-20T08:14:08.573Z,12.81
2022-10-20T08:16:56.964Z,12.85
2022-10-20T08:22:49.629Z,13.00
2022-10-20T08:25:40.985Z,13.12
2022-10-20T08:28:31.884Z,13.24
2022-10-20T08:31:21.417Z,13.31
2022-10-20T08:34:10.526Z,13.39
2022-10-20T08:36:59.624Z,13.47
2022-10-20T08:39:48.196Z,13.56
2022-10-20T08:42:44.992Z,13.67
2022-10-20T08:45:38.393Z,13.78
2022-10-20T08:48:32.481Z,13.89
2022-10-20T08:51:24.527Z,13.98
2022-10-20T08:54:16.525Z,14.09
2022-10-20T08:57:15.543Z,14.16
2022-10-20T09:03:31.780Z,14.33
2022-10-20T09:06:20.905Z,14.41
2022-10-20T09:09:28.364Z,14.51
2022-10-20T09:12:20.284Z,14.63
2022-10-20T09:15:12.105Z,14.74
2022-10-20T09:21:45.260Z,14.96
2022-10-20T09:24:51.903Z,15.08
2022-10-20T09:27:58.022Z,15.19
2022-10-20T09:30:46.717Z,15.32
2022-10-20T09:33:36.733Z,15.44
2022-10-20T09:36:30.958Z,15.57
2022-10-20T09:39:23.111Z,15.68
2022-10-20T09:42:19.354Z,15.79
2022-10-20T09:45:16.648Z,15.86
2022-10-20T09:48:19.114Z,15.94
2022-10-20T09:51:17.219Z,16.05
2022-10-20T09:54:15.976Z,16.16
2022-10-20T09:57:17.550Z,16.26
2022-10-20T10:00:19.187Z,16.37
2022-10-20T10:03:21.083Z,16.45
2022-10-20T10:06:40.833Z,16.55
2022-10-20T10:17:32.849Z,16.82
2022-10-20T10:48:23.431Z,17.66
2022-10-20T11:01:43.107Z,17.83
2022-10-20T12:15:01.763Z,18.71
2022-10-20T12:33:48.615Z,18.76
2022-10-20T12:37:39.222Z,18.77
2022-10-20T12:44:09.634Z,18.79
2022-10-20T12:47:08.580Z,18.82
2022-10-20T12:50:01.684Z,18.80
2022-10-20T12:52:52.367Z,18.77
2022-10-20T12:55:44.665Z,18.74
2022-10-20T12:58:36.020Z,18.74
2022-10-20T13:01:24.214Z,18.75
2022-10-20T13:08:29.931Z,18.72
2022-10-20T13:11:53.969Z,18.69
2022-10-20T13:14:53.245Z,18.67
2022-10-20T13:17:54.339Z,18.66
2022-10-20T13:20:48.863Z,18.61
2022-10-20T13:23:40.841Z,18.59
2022-10-20T13:26:35.100Z,18.56
2022-10-20T13:29:31.755Z,18.55
2022-10-20T13:32:28.656Z,18.52
2022-10-20T13:35:26.110Z,18.50
2022-10-20T13:38:20.385Z,18.50
2022-10-20T13:41:18.525Z,18.51
2022-10-20T13:44:22.497Z,18.47
2022-10-20T13:47:27.770Z,18.46
2022-10-20T13:50:22.538Z,18.40
2022-10-20T13:53:22.778Z,18.35
2022-10-20T13:56:34.837Z,18.30
2022-10-20T13:59:34.268Z,18.27
2022-10-20T14:02:33.124Z,18.21
2022-10-20T14:05:31.245Z,18.15
2022-10-20T14:08:25.915Z,18.09
2022-10-20T14:11:17.729Z,18.02
2022-10-20T14:14:07.209Z,17.93
2022-10-20T14:16:59.782Z,17.86
2022-10-20T14:20:08.727Z,17.79
2022-10-20T14:23:02.649Z,17.69
2022-10-20T14:25:58.070Z,17.58
2022-10-20T14:28:51.321Z,17.51
2022-10-20T14:31:40.721Z,17.40
2022-10-20T14:34:31.955Z,17.30
2022-10-20T14:37:33.417Z,17.20
2022-10-20T14:40:24.414Z,17.13
2022-10-20T14:43:18.760Z,17.06
2022-10-20T14:46:10.976Z,16.96
2022-10-20T14:48:59.469Z,16.88
2022-10-20T14:51:57.671Z,16.80
2022-10-20T14:54:47.670Z,16.71
2022-10-20T14:57:45.030Z,16.62
2022-10-20T15:00:37.166Z,16.54
2022-10-20T15:03:25.226Z,16.45
2022-10-20T15:06:17.980Z,16.37
2022-10-20T15:09:07.391Z,16.27
2022-10-20T15:11:56.341Z,16.18
2022-10-20T15:14:46.970Z,16.11
2022-10-20T15:17:38.439Z,16.02
2022-10-20T15:20:32.428Z,15.93
2022-10-20T15:23:23.081Z,15.83
2022-10-20T15:26:14.263Z,15.75
2022-10-20T15:29:04.301Z,15.66
2022-10-20T15:31:53.151Z,15.58
2022-10-20T15:34:41.551Z,15.47
2022-10-20T15:37:29.919Z,15.38
2022-10-20T15:40:20.260Z,15.27
2022-10-20T15:43:12.954Z,15.17
2022-10-20T15:46:01.258Z,15.08
2022-10-20T15:48:49.867Z,14.98
2022-10-20T15:51:40.664Z,14.88
2022-10-20T15:54:29.289Z,14.76
2022-10-20T15:57:17.646Z,14.67
2022-10-20T16:00:08.176Z,14.59
2022-10-20T16:02:57.567Z,14.50
2022-10-20T16:05:47.470Z,14.39
2022-10-20T16:08:35.703Z,14.30
2022-10-20T16:11:39.784Z,14.20
2022-10-20T16:14:28.517Z,14.11
2022-10-20T16:17:26.580Z,14.03
2022-10-20T16:20:16.151Z,13.90
2022-10-20T16:23:04.303Z,13.83
2022-10-20T16:25:52.711Z,13.75
2022-10-20T16:28:40.781Z,13.67
2022-10-20T16:31:29.454Z,13.59
2022-10-20T16:34:17.346Z,13.51
2022-10-20T16:37:05.333Z,13.43
2022-10-20T16:39:53.301Z,13.37
2022-10-20T16:42:42.392Z,13.30
2022-10-20T16:45:31.454Z,13.26
2022-10-20T16:48:19.230Z,13.20
2022-10-20T16:51:09.884Z,13.15
2022-10-20T16:54:03.316Z,13.09
2022-10-20T16:56:52.173Z,13.04
2022-10-20T16:59:42.310Z,12.99
2022-10-20T17:02:31.109Z,12.93
2022-10-20T17:05:26.355Z,12.87
2022-10-20T17:08:15.609Z,12.83
2022-10-20T17:11:07.161Z,12.77
2022-10-20T17:13:58.219Z,12.71
2022-10-20T17:16:48.390Z,12.64
2022-10-20T17:19:37.348Z,12.60
2022-10-20T17:22:25.694Z,12.50
2022-10-20T17:25:14.127Z,12.51
2022-10-20T17:28:02.443Z,12.46
2022-10-20T17:30:52.573Z,12.43
2022-10-20T17:33:41.826Z,12.38
2022-10-20T17:36:31.910Z,12.33
2022-10-20T17:39:21.489Z,12.29
2022-10-20T17:42:09.423Z,12.25
2022-10-20T17:44:58.283Z,12.21
2022-10-20T17:47:47.456Z,12.16
2022-10-20T17:50:35.649Z,12.14
2022-10-20T17:53:24.058Z,12.11
2022-10-20T17:56:14.249Z,12.07
2022-10-20T17:59:07.025Z,12.04
2022-10-20T18:01:55.951Z,12.01
2022-10-20T18:04:45.080Z,11.96
2022-10-20T18:07:33.601Z,11.97
2022-10-20T18:10:22.981Z,11.95
2022-10-20T18:13:11.438Z,11.92
2022-10-20T18:16:00.110Z,11.89
2022-10-20T18:18:49.461Z,11.86
2022-10-20T18:21:37.664Z,11.82
2022-10-20T18:24:25.610Z,11.80
2022-10-20T18:27:14.318Z,11.77
2022-10-20T18:30:02.362Z,11.73
2022-10-20T18:32:51.670Z,11.71
2022-10-20T18:35:40.446Z,11.69
2022-10-20T18:38:28.693Z,11.65
2022-10-20T18:41:19.190Z,11.65
2022-10-20T18:44:11.451Z,11.63
2022-10-20T18:47:00.212Z,11.62
2022-10-20T18:49:48.993Z,11.61
2022-10-20T18:52:37.233Z,11.60
2022-10-20T18:55:25.742Z,11.58
2022-10-20T18:58:18.931Z,11.57
2022-10-20T19:01:09.656Z,11.54
2022-10-20T19:03:59.489Z,11.53
2022-10-20T19:06:48.898Z,11.51
2022-10-20T19:09:37.040Z,11.50
2022-10-20T19:12:25.553Z,11.48
2022-10-20T19:15:13.589Z,11.45
2022-10-20T19:18:01.850Z,11.45
2022-10-20T19:20:58.329Z,11.44
2022-10-20T19:23:50.627Z,11.43
2022-10-20T19:26:41.784Z,11.41
2022-10-20T19:29:30.439Z,11.41
2022-10-20T19:32:18.787Z,11.41
2022-10-20T19:35:09.433Z,11.38
2022-10-20T19:37:57.252Z,11.36
2022-10-20T19:40:45.436Z,11.32
2022-10-20T19:43:34.794Z,11.29
2022-10-20T19:46:24.270Z,11.25
2022-10-20T19:49:13.716Z,11.20
2022-10-20T19:52:02.318Z,11.14
2022-10-20T19:54:51.014Z,11.11
2022-10-20T19:57:40.007Z,11.07
2022-10-20T20:00:28.369Z,11.03
2022-10-20T20:03:17.626Z,11.00
2022-10-20T20:06:09.113Z,10.96
2022-10-20T20:09:00.138Z,10.91
2022-10-20T20:11:48.476Z,10.88
2022-10-20T20:14:36.608Z,10.84
2022-10-20T20:17:24.961Z,10.77
2022-10-20T20:20:13.423Z,10.70
2022-10-20T20:23:01.841Z,10.63
2022-10-20T20:25:51.406Z,10.59
2022-10-20T20:28:39.788Z,10.52
2022-10-20T20:31:29.963Z,10.46
2022-10-20T20:34:21.014Z,10.42
2022-10-20T20:37:09.002Z,10.36
2022-10-20T20:39:57.800Z,10.30
2022-10-20T20:42:46.400Z,10.26
2022-10-20T20:45:34.266Z,10.21
2022-10-20T20:48:22.781Z,10.15
2022-10-20T20:51:13.538Z,10.11
2022-10-20T20:54:02.240Z,10.06
2022-10-20T20:56:50.236Z,10.02
2022-10-20T20:59:38.370Z,9.96
2022-10-20T21:02:26.447Z,9.90
2022-10-20T21:05:15.826Z,9.86
2022-10-20T21:08:03.711Z,9.79
2022-10-20T21:10:52.426Z,9.72
2022-10-20T21:13:41.770Z,9.64
2022-10-20T21:16:32.648Z,9.59
2022-10-20T21:19:21.454Z,9.54
2022-10-20T21:22:11.549Z,9.49
2022-10-20T21:24:59.841Z,9.45
2022-10-20T21:27:48.393Z,9.43
2022-10-20T21:30:39.485Z,9.37
2022-10-20T21:33:27.651Z,9.31
2022-10-20T21:36:18.113Z,9.29
2022-10-20T21:39:11.506Z,9.24
2022-10-20T21:41:59.743Z,9.20
2022-10-20T21:44:49.516Z,9.18
2022-10-20T21:47:37.878Z,9.14
2022-10-20T21:50:26.392Z,9.12
2022-10-20T21:53:15.094Z,9.09
2022-10-20T21:56:03.507Z,9.07
2022-10-20T21:58:52.980Z,9.05
2022-10-20T22:01:40.971Z,9.03
2022-10-20T22:04:30.590Z,9.02
2022-10-20T22:07:18.668Z,9.01
2022-10-20T22:10:08.373Z,9.01
2022-10-20T22:12:56.525Z,9.01
2022-10-20T22:15:44.734Z,9.01
2022-10-20T22:18:33.370Z,9.03
2022-10-20T22:21:32.771Z,9.03
2022-10-20T22:24:21.770Z,9.01
2022-10-20T22:27:15.697Z,8.99
2022-10-20T22:30:16.182Z,8.98
2022-10-20T22:33:04.177Z,8.95
2022-10-20T22:35:52.132Z,8.94
2022-10-20T22:38:40.535Z,8.93
2022-10-20T22:41:28.351Z,8.91
2022-10-20T22:44:16.747Z,8.90
2022-10-20T22:47:04.890Z,8.89
2022-10-20T22:49:52.992Z,8.89
2022-10-20T22:52:41.436Z,8.86
2022-10-20T22:55:30.050Z,8.87
2022-10-20T22:58:20.852Z,8.85
2022-10-20T23:01:11.550Z,8.84
2022-10-20T23:04:00.616Z,8.82
2022-10-20T23:06:49.070Z,8.82
2022-10-20T23:09:40.087Z,8.81
2022-10-20T23:12:28.669Z,8.79
2022-10-20T23:15:16.792Z,8.81
2022-10-20T23:18:04.709Z,8.82
2022-10-20T23:20:57.418Z,8.80
2022-10-20T23:23:46.923Z,8.79
2022-10-20T23:26:35.594Z,8.78
2022-10-20T23:29:23.734Z,8.76
2022-10-20T23:32:12.104Z,8.75
2022-10-20T23:35:00.154Z,8.76
2022-10-20T23:37:48.265Z,8.77
2022-10-20T23:40:36.168Z,8.76
2022-10-20T23:43:26.603Z,8.74
2022-10-20T23:46:15.447Z,8.76
2022-10-20T23:49:04.650Z,8.74
2022-10-20T23:51:53.245Z,8.72
2022-10-20T23:54:41.376Z,8.70
2022-10-20T23:57:29.438Z,8.71
